createdAt,value
2022-09-28T00:00:15.281Z,99473.14
2022-09-28T00:01:23.560Z,99461.00
2022-09-28T00:02:27.561Z,99461.00
2022-09-28T00:03:30.518Z,99462.66
2022-09-28T00:04:33.534Z,99461.83
2022-09-28T00:05:36.375Z,99454.41
2022-09-28T00:06:39.603Z,99455.23
2022-09-28T00:07:43.119Z,99457.16
2022-09-28T00:08:46.485Z,99459.08
2022-09-28T00:09:49.347Z,99457.16
2022-09-28T00:10:55.871Z,99458.25
2022-09-28T00:11:59.259Z,99464.58
2022-09-28T00:13:02.324Z,99455.50
2022-09-28T00:14:06.897Z,99461.83
2022-09-28T00:15:10.249Z,99456.33
2022-09-28T00:16:16.588Z,99467.34
2022-09-28T00:17:21.392Z,99461.00
2022-09-28T00:18:24.146Z,99461.83
2022-09-28T00:19:27.276Z,99462.66
2022-09-28T00:20:30.698Z,99457.16
2022-09-28T00:21:36.080Z,99453.58
2022-09-28T00:22:38.948Z,99451.65
2022-09-28T00:24:00.901Z,99453.58
2022-09-28T00:25:05.138Z,99460.73
2022-09-28T00:26:08.381Z,99451.65
2022-09-28T00:27:11.903Z,99460.73
2022-09-28T00:28:14.745Z,99451.65
2022-09-28T00:29:31.033Z,99451.65
2022-09-28T00:30:34.135Z,99446.97
2022-09-28T00:31:37.087Z,99445.05
2022-09-28T00:32:40.044Z,99442.56
2022-09-28T00:33:42.751Z,99447.80
2022-09-28T00:34:45.820Z,99447.80
2022-09-28T00:35:57.572Z,99447.80
2022-09-28T00:37:02.022Z,99448.62
2022-09-28T00:38:05.374Z,99447.80
2022-09-28T00:39:08.648Z,99440.64
2022-09-28T00:40:12.150Z,99442.30
2022-09-28T00:41:15.794Z,99431.28
2022-09-28T00:42:21.791Z,99435.97
2022-09-28T00:43:25.860Z,99425.78
2022-09-28T00:44:41.553Z,99416.70
2022-09-28T00:45:45.101Z,99420.28
2022-09-28T00:46:51.492Z,99405.69
2022-09-28T00:47:58.076Z,99405.69
2022-09-28T00:49:08.250Z,99414.77
2022-09-28T00:50:30.584Z,99407.62
2022-09-28T00:51:36.321Z,99408.17
2022-09-28T00:52:57.381Z,99404.59
2022-09-28T00:54:03.198Z,99412.02
2022-09-28T00:55:09.864Z,99401.29
2022-09-28T00:56:18.472Z,99404.86
2022-09-28T00:57:22.649Z,99400.19
2022-09-28T00:58:29.120Z,99394.68
2022-09-28T00:59:33.580Z,99399.09
2022-09-28T01:00:37.308Z,99399.91
2022-09-28T01:01:40.398Z,99403.77
2022-09-28T01:02:45.167Z,99410.09
2022-09-28T01:03:48.328Z,99414.50
2022-09-28T01:04:51.768Z,99410.92
2022-09-28T01:05:57.789Z,99409.00
2022-09-28T01:07:00.847Z,99405.42
2022-09-28T01:08:05.167Z,99418.08
2022-09-28T01:09:10.153Z,99413.40
2022-09-28T01:10:14.247Z,99407.89
2022-09-28T01:11:19.255Z,99414.19
2022-09-28T01:12:22.146Z,99415.84
2022-09-28T01:13:25.665Z,99415.02
2022-09-28T01:14:28.718Z,99415.02
2022-09-28T01:15:34.926Z,99415.02
2022-09-28T01:16:56.724Z,99411.44
2022-09-28T01:18:13.809Z,99412.58
2022-09-28T01:19:41.013Z,99416.42
2022-09-28T01:20:56.649Z,99415.33
2022-09-28T01:22:18.361Z,99406.52
2022-09-28T01:23:30.954Z,99415.60
2022-09-28T01:24:48.117Z,99411.20
2022-09-28T01:25:55.262Z,99419.45
2022-09-28T01:27:05.391Z,99415.88
2022-09-28T01:28:14.630Z,99413.13
2022-09-28T01:29:21.026Z,99414.22
2022-09-28T01:30:25.524Z,99411.47
2022-09-28T01:31:32.264Z,99410.37
2022-09-28T01:32:55.342Z,99415.88
2022-09-28T01:34:07.754Z,99407.62
2022-09-28T01:35:23.733Z,99403.77
2022-09-28T01:36:42.502Z,99404.86
2022-09-28T01:37:51.833Z,99408.45
2022-09-28T01:39:04.431Z,99412.02
2022-09-28T01:40:11.147Z,99404.86
2022-09-28T01:41:17.217Z,99402.94
2022-09-28T01:42:24.625Z,99407.62
2022-09-28T01:43:30.005Z,99405.69
2022-09-28T01:44:38.389Z,99403.77
2022-09-28T01:45:45.220Z,99402.66
2022-09-28T01:46:50.269Z,99400.73
2022-09-28T01:47:56.864Z,99398.81
2022-09-28T01:50:20.240Z,99395.42
2022-09-28T01:51:35.897Z,99394.66
2022-09-28T01:52:52.027Z,99393.83
2022-09-28T01:53:58.558Z,99404.56
2022-09-28T01:55:05.218Z,99402.63
2022-09-28T01:56:14.687Z,99401.81
2022-09-28T01:57:31.309Z,99399.61
2022-09-28T01:58:40.931Z,99405.94
2022-09-28T01:59:47.669Z,99403.98
2022-09-28T02:00:54.420Z,99399.30
2022-09-28T02:02:12.833Z,99401.23
2022-09-28T02:03:19.254Z,99402.05
2022-09-28T02:04:30.789Z,99407.56
2022-09-28T02:05:37.294Z,99403.19
2022-09-28T02:06:49.666Z,99400.13
2022-09-28T02:08:11.418Z,99411.14
2022-09-28T02:09:22.950Z,99408.11
2022-09-28T02:10:35.490Z,99409.21
2022-09-28T02:11:42.236Z,99410.86
2022-09-28T02:12:48.877Z,99406.19
2022-09-28T02:14:01.690Z,99413.34
2022-09-28T02:15:14.279Z,99403.98
2022-09-28T02:16:26.715Z,99404.77
2022-09-28T02:17:29.809Z,99402.02
2022-09-28T02:18:33.289Z,99402.84
2022-09-28T02:19:36.581Z,99406.43
2022-09-28T02:20:43.189Z,99402.02
2022-09-28T02:21:59.133Z,99406.43
2022-09-28T02:23:04.212Z,99398.17
2022-09-28T02:24:21.266Z,99396.52
2022-09-28T02:25:24.795Z,99396.24
2022-09-28T02:26:31.842Z,99399.82
2022-09-28T02:27:41.772Z,99392.39
2022-09-28T02:28:44.763Z,99392.39
2022-09-28T02:29:49.161Z,99394.04
2022-09-28T02:30:52.248Z,99388.53
2022-09-28T02:31:55.312Z,99389.36
2022-09-28T02:33:01.867Z,99392.11
2022-09-28T02:34:05.138Z,99405.87
2022-09-28T02:35:12.175Z,99396.80
2022-09-28T02:36:15.449Z,99401.20
2022-09-28T02:37:18.579Z,99395.69
2022-09-28T02:38:21.564Z,99388.26
2022-09-28T02:39:26.198Z,99393.77
2022-09-28T02:40:32.806Z,99393.77
2022-09-28T02:41:52.194Z,99403.64
2022-09-28T02:43:15.425Z,99397.31
2022-09-28T02:44:40.055Z,99403.64
2022-09-28T02:45:55.728Z,99403.95
2022-09-28T02:47:14.956Z,99404.77
2022-09-28T02:48:41.532Z,99396.80
2022-09-28T02:49:35.952Z,99401.47
2022-09-28T02:50:45.459Z,99395.14
2022-09-28T02:52:14.779Z,99394.04
2022-09-28T02:53:37.724Z,99390.46
2022-09-28T02:54:59.325Z,99394.87
2022-09-28T02:56:14.504Z,99392.11
2022-09-28T02:57:29.821Z,99392.94
2022-09-28T02:58:36.563Z,99395.69
2022-09-28T02:59:59.722Z,99395.39
2022-09-28T03:01:32.959Z,99400.89
2022-09-28T03:02:51.719Z,99397.31
2022-09-28T03:03:58.217Z,99397.31
2022-09-28T03:05:13.698Z,99404.47
2022-09-28T03:06:29.005Z,99413.83
2022-09-28T03:07:38.421Z,99404.77
2022-09-28T03:08:47.984Z,99403.64
2022-09-28T03:10:24.772Z,99409.15
2022-09-28T03:11:40.159Z,99410.80
2022-09-28T03:12:46.085Z,99406.13
2022-09-28T03:13:51.453Z,99410.52
2022-09-28T03:15:22.734Z,99407.77
2022-09-28T03:16:26.970Z,99403.92
2022-09-28T03:17:30.412Z,99408.02
2022-09-28T03:18:33.468Z,99409.95
2022-09-28T03:19:36.586Z,99404.16
2022-09-28T03:20:39.633Z,99404.98
2022-09-28T03:21:42.491Z,99409.39
2022-09-28T03:23:00.238Z,99400.30
2022-09-28T03:23:51.354Z,99402.78
2022-09-28T03:24:54.161Z,99400.03
2022-09-28T03:25:57.073Z,99405.23
2022-09-28T03:27:00.228Z,99396.97
2022-09-28T03:28:03.143Z,99400.27
2022-09-28T03:29:07.899Z,99404.95
2022-09-28T03:30:12.396Z,99398.34
2022-09-28T03:31:16.814Z,99404.67
2022-09-28T03:32:19.890Z,99406.33
2022-09-28T03:33:23.067Z,99407.16
2022-09-28T03:34:26.128Z,99410.70
2022-09-28T03:35:29.374Z,99416.20
2022-09-28T03:36:32.377Z,99408.77
2022-09-28T03:37:36.066Z,99418.69
2022-09-28T03:38:39.532Z,99415.11
2022-09-28T03:39:42.945Z,99408.50
2022-09-28T03:40:55.523Z,99408.50
2022-09-28T03:42:00.566Z,99404.64
2022-09-28T03:43:04.028Z,99406.30
2022-09-28T03:44:07.067Z,99409.05
2022-09-28T03:45:10.375Z,99409.88
2022-09-28T03:46:14.388Z,99411.80
2022-09-28T03:47:19.475Z,99410.70
2022-09-28T03:48:32.645Z,99417.83
2022-09-28T03:49:35.981Z,99423.33
2022-09-28T03:50:39.096Z,99414.25
2022-09-28T03:51:42.054Z,99418.66
2022-09-28T03:52:44.984Z,99418.38
2022-09-28T03:53:48.018Z,99417.27
2022-09-28T03:54:50.969Z,99420.02
2022-09-28T03:55:53.997Z,99420.02
2022-09-28T03:56:56.997Z,99420.02
2022-09-28T03:58:00.046Z,99418.09
2022-09-28T03:59:04.119Z,99425.25
2022-09-28T04:00:08.843Z,99421.37
2022-09-28T04:01:18.490Z,99423.84
2022-09-28T04:02:22.379Z,99421.37
2022-09-28T04:03:25.461Z,99421.09
2022-09-28T04:04:28.820Z,99425.50
2022-09-28T04:05:32.389Z,99425.50
2022-09-28T04:06:35.455Z,99418.89
2022-09-28T04:07:38.385Z,99426.02
2022-09-28T04:08:42.800Z,99423.27
2022-09-28T04:09:45.896Z,99415.82
2022-09-28T04:10:49.058Z,99418.30
2022-09-28T04:12:03.255Z,99418.30
2022-09-28T04:12:57.302Z,99416.38
2022-09-28T04:14:00.890Z,99416.92
2022-09-28T04:15:04.484Z,99409.48
2022-09-28T04:16:09.156Z,99423.25
2022-09-28T04:17:12.150Z,99414.98
2022-09-28T04:18:15.978Z,99411.92
2022-09-28T04:19:26.993Z,99413.58
2022-09-28T04:20:48.441Z,99413.58
2022-09-28T04:21:51.771Z,99403.38
2022-09-28T04:22:54.917Z,99409.72
2022-09-28T04:23:58.874Z,99402.28
2022-09-28T04:25:01.891Z,99403.11
2022-09-28T04:26:07.279Z,99407.52
2022-09-28T04:27:28.563Z,99409.95
2022-09-28T04:28:50.153Z,99412.71
2022-09-28T04:29:53.133Z,99415.47
2022-09-28T04:30:56.231Z,99419.33
2022-09-28T04:32:00.717Z,99413.81
2022-09-28T04:33:11.165Z,99411.06
2022-09-28T04:34:16.780Z,99409.95
2022-09-28T04:35:19.925Z,99410.27
2022-09-28T04:36:24.564Z,99406.37
2022-09-28T04:37:29.579Z,99404.99
2022-09-28T04:38:51.729Z,99407.75
2022-09-28T04:39:43.120Z,99403.89
2022-09-28T04:40:48.920Z,99406.33
2022-09-28T04:41:52.034Z,99404.41
2022-09-28T04:42:56.248Z,99398.89
2022-09-28T04:44:00.225Z,99402.20
2022-09-28T04:45:04.246Z,99398.34
2022-09-28T04:46:10.092Z,99393.65
2022-09-28T04:47:15.186Z,99393.34
2022-09-28T04:48:36.998Z,99402.43
2022-09-28T04:49:44.662Z,99406.84
2022-09-28T04:50:56.688Z,99399.12
2022-09-28T04:51:59.720Z,99399.94
2022-09-28T04:53:03.687Z,99402.39
2022-09-28T04:54:06.673Z,99400.45
2022-09-28T04:55:12.222Z,99402.11
2022-09-28T04:56:17.965Z,99402.11
2022-09-28T04:57:21.469Z,99402.11
2022-09-28T04:58:24.702Z,99401.00
2022-09-28T04:59:27.578Z,99399.90
2022-09-28T05:00:32.845Z,99404.30
2022-09-28T05:01:37.604Z,99393.28
2022-09-28T05:03:00.709Z,99402.38
2022-09-28T05:04:14.424Z,99401.23
2022-09-28T05:06:32.648Z,99409.16
2022-09-28T05:07:37.430Z,99396.55
2022-09-28T05:08:43.269Z,99408.12
2022-09-28T05:09:46.493Z,99410.59
2022-09-28T05:10:55.057Z,99410.59
2022-09-28T05:11:58.120Z,99403.95
2022-09-28T05:13:02.013Z,99413.86
2022-09-28T05:14:05.509Z,99408.35
2022-09-28T05:15:08.917Z,99410.28
2022-09-28T05:16:14.028Z,99412.76
2022-09-28T05:17:18.916Z,99412.76
2022-09-28T05:18:41.737Z,99406.14
2022-09-28T05:19:44.724Z,99404.21
2022-09-28T05:20:47.678Z,99416.89
2022-09-28T05:21:50.623Z,99414.13
2022-09-28T05:22:53.681Z,99414.13
2022-09-28T05:23:57.741Z,99409.44
2022-09-28T05:25:02.320Z,99407.48
2022-09-28T05:26:07.769Z,99414.67
2022-09-28T05:27:11.940Z,99409.16
2022-09-28T05:28:16.682Z,99400.61
2022-09-28T05:29:24.331Z,99400.61
2022-09-28T05:30:45.789Z,99405.84
2022-09-28T05:32:08.493Z,99403.91
2022-09-28T05:33:22.325Z,99414.11
2022-09-28T05:34:27.131Z,99414.94
2022-09-28T05:35:31.019Z,99416.56
2022-09-28T05:36:35.178Z,99416.56
2022-09-28T05:37:38.533Z,99413.23
2022-09-28T05:38:41.706Z,99416.82
2022-09-28T05:39:45.067Z,99414.58
2022-09-28T05:40:48.221Z,99410.72
2022-09-28T05:41:51.485Z,99418.70
2022-09-28T05:42:58.081Z,99412.09
2022-09-28T05:44:01.682Z,99416.17
2022-09-28T05:45:06.379Z,99417.55
2022-09-28T05:46:11.615Z,99413.38
2022-09-28T05:47:16.572Z,99415.56
2022-09-28T05:48:19.623Z,99416.08
2022-09-28T05:49:22.600Z,99417.16
2022-09-28T05:50:25.667Z,99411.05
2022-09-28T05:51:29.002Z,99423.45
2022-09-28T05:52:32.114Z,99422.84
2022-09-28T05:53:35.207Z,99422.28
2022-09-28T05:54:38.195Z,99421.69
2022-09-28T05:55:41.264Z,99426.64
2022-09-28T05:56:44.253Z,99423.56
2022-09-28T05:57:47.354Z,99415.55
2022-09-28T05:58:50.420Z,99417.70
2022-09-28T05:59:55.873Z,99411.59
2022-09-28T06:00:59.045Z,99407.44
2022-09-28T06:02:03.564Z,99415.94
2022-09-28T06:03:09.699Z,99411.78
2022-09-28T06:04:14.238Z,99413.11
2022-09-28T06:05:18.290Z,99403.44
2022-09-28T06:06:21.375Z,99414.70
2022-09-28T06:07:24.482Z,99410.55
2022-09-28T06:08:27.529Z,99408.33
2022-09-28T06:09:32.444Z,99412.41
2022-09-28T06:10:40.451Z,99411.84
2022-09-28T06:11:43.520Z,99418.70
2022-09-28T06:12:54.541Z,99417.58
2022-09-28T06:13:57.509Z,99413.72
2022-09-28T06:15:02.388Z,99421.67
2022-09-28T06:16:07.480Z,99417.80
2022-09-28T06:17:10.519Z,99419.48
2022-09-28T06:18:14.466Z,99420.84
2022-09-28T06:19:19.252Z,99416.95
2022-09-28T06:20:41.305Z,99416.66
2022-09-28T06:21:47.423Z,99416.66
2022-09-28T06:22:52.370Z,99420.25
2022-09-28T06:23:55.427Z,99423.83
2022-09-28T06:24:58.347Z,99425.77
2022-09-28T06:26:01.491Z,99429.35
2022-09-28T06:27:04.523Z,99426.59
2022-09-28T06:28:10.904Z,99421.61
2022-09-28T06:29:19.486Z,99424.37
2022-09-28T06:30:22.862Z,99428.75
2022-09-28T06:31:26.608Z,99416.59
2022-09-28T06:32:30.196Z,99422.65
2022-09-28T06:33:34.486Z,99421.54
2022-09-28T06:34:37.962Z,99418.45
2022-09-28T06:35:41.734Z,99418.17
2022-09-28T06:36:44.748Z,99415.95
2022-09-28T06:37:47.951Z,99419.21
2022-09-28T06:38:50.932Z,99412.28
2022-09-28T06:39:54.241Z,99417.20
2022-09-28T06:40:58.360Z,99411.39
2022-09-28T06:42:03.348Z,99406.41
2022-09-28T06:43:14.468Z,99415.19
2022-09-28T06:44:35.813Z,99412.97
2022-09-28T06:45:42.172Z,99409.91
2022-09-28T06:46:47.091Z,99419.03
2022-09-28T06:47:57.835Z,99415.13
2022-09-28T06:49:03.146Z,99408.48
2022-09-28T06:50:11.822Z,99409.02
2022-09-28T06:51:28.774Z,99403.48
2022-09-28T06:52:33.727Z,99410.34
2022-09-28T06:53:38.521Z,99407.29
2022-09-28T06:54:46.558Z,99408.65
2022-09-28T06:55:51.536Z,99402.80
2022-09-28T06:56:54.680Z,99394.22
2022-09-28T06:58:00.287Z,99384.83
2022-09-28T06:59:03.311Z,99394.76
2022-09-28T07:00:07.612Z,99390.87
2022-09-28T07:01:11.552Z,99389.73
2022-09-28T07:02:16.491Z,99388.94
2022-09-28T07:03:37.526Z,99385.03
2022-09-28T07:04:58.529Z,99371.22
2022-09-28T07:06:15.569Z,99374.80
2022-09-28T07:07:36.884Z,99377.56
2022-09-28T07:08:42.794Z,99391.70
2022-09-28T07:10:02.347Z,99400.28
2022-09-28T07:11:08.353Z,99391.75
2022-09-28T07:13:49.186Z,99386.97
2022-09-28T07:14:47.505Z,99388.24
2022-09-28T07:15:40.659Z,99389.39
2022-09-28T07:17:08.652Z,99389.39
2022-09-28T07:18:02.665Z,99396.53
2022-09-28T07:19:03.858Z,99394.30
2022-09-28T07:20:17.556Z,99400.04
2022-09-28T07:21:23.066Z,99401.11
2022-09-28T07:22:20.051Z,99399.38
2022-09-28T07:23:25.701Z,99396.53
2022-09-28T07:24:48.317Z,99394.52
2022-09-28T07:26:10.071Z,99394.64
2022-09-28T07:27:18.963Z,99390.09
2022-09-28T07:28:24.868Z,99401.63
2022-09-28T07:29:32.452Z,99392.09
2022-09-28T07:30:38.133Z,99383.73
2022-09-28T07:31:45.843Z,99383.95
2022-09-28T07:33:09.174Z,99379.73
2022-09-28T07:34:13.980Z,99385.50
2022-09-28T07:35:19.049Z,99380.80
2022-09-28T07:36:23.933Z,99379.34
2022-09-28T07:37:28.584Z,99391.77
2022-09-28T07:38:32.912Z,99385.11
2022-09-28T07:39:57.515Z,99394.73
2022-09-28T07:41:13.690Z,99394.44
2022-09-28T07:42:18.455Z,99399.67
2022-09-28T07:43:21.995Z,99399.05
2022-09-28T07:44:28.710Z,99399.05
2022-09-28T07:45:33.580Z,99399.05
2022-09-28T07:46:36.980Z,99398.22
2022-09-28T07:47:58.208Z,99399.05
2022-09-28T07:49:09.722Z,99399.34
2022-09-28T07:51:24.541Z,99390.86
2022-09-28T07:52:29.393Z,99397.41
2022-09-28T07:53:40.327Z,99399.34
2022-09-28T07:54:57.925Z,99395.45
2022-09-28T07:56:08.997Z,99400.70
2022-09-28T07:57:21.121Z,99392.10
2022-09-28T07:58:25.919Z,99395.06
2022-09-28T07:59:31.199Z,99394.97
2022-09-28T08:00:54.084Z,99399.58
2022-09-28T08:01:58.425Z,99397.84
2022-09-28T08:03:02.634Z,99399.48
2022-09-28T08:04:07.057Z,99407.48
2022-09-28T08:05:11.963Z,99393.36
2022-09-28T08:06:17.180Z,99392.23
2022-09-28T08:07:24.127Z,99394.08
2022-09-28T08:08:29.449Z,99395.39
2022-09-28T08:09:32.569Z,99394.80
2022-09-28T08:10:46.483Z,99396.94
2022-09-28T08:11:55.635Z,99383.63
2022-09-28T08:13:21.246Z,99388.83
2022-09-28T08:14:29.119Z,99387.71
2022-09-28T08:15:37.745Z,99388.53
2022-09-28T08:16:47.506Z,99384.94
2022-09-28T08:17:52.259Z,99401.88
2022-09-28T08:18:57.117Z,99393.88
2022-09-28T08:20:20.570Z,99403.59
2022-09-28T08:21:42.677Z,99396.75
2022-09-28T08:22:46.016Z,99406.47
2022-09-28T08:23:49.931Z,99400.11
2022-09-28T08:24:53.185Z,99400.44
2022-09-28T08:25:56.035Z,99404.03
2022-09-28T08:27:00.079Z,99402.88
2022-09-28T08:28:08.114Z,99396.52
2022-09-28T08:29:16.462Z,99397.34
2022-09-28T08:30:21.561Z,99398.16
2022-09-28T08:31:27.157Z,99397.34
2022-09-28T08:32:50.970Z,99397.34
2022-09-28T08:34:12.025Z,99399.61
2022-09-28T08:35:34.985Z,99402.68
2022-09-28T08:36:42.922Z,99410.16
2022-09-28T08:38:04.763Z,99403.80
2022-09-28T08:39:15.500Z,99405.74
2022-09-28T08:40:35.998Z,99407.69
2022-09-28T08:41:47.348Z,99410.78
2022-09-28T08:42:58.571Z,99409.96
2022-09-28T08:44:23.892Z,99412.50
2022-09-28T08:45:45.224Z,99408.70
2022-09-28T08:47:10.940Z,99408.80
2022-09-28T08:48:45.703Z,99406.33
2022-09-28T08:50:09.750Z,99400.80
2022-09-28T08:51:30.552Z,99402.16
2022-09-28T08:52:38.980Z,99406.56
2022-09-28T08:54:05.793Z,99396.81
2022-09-28T08:55:31.933Z,99395.70
2022-09-28T08:56:45.153Z,99397.34
2022-09-28T08:57:52.414Z,99404.52
2022-09-28T08:59:00.171Z,99395.07
2022-09-28T09:00:09.591Z,99399.48
2022-09-28T09:01:16.030Z,99409.96
2022-09-28T09:02:24.983Z,99404.09
2022-09-28T09:03:35.481Z,99410.16
2022-09-28T09:04:51.518Z,99412.63
2022-09-28T09:06:16.384Z,99408.73
2022-09-28T09:07:59.743Z,99417.05
2022-09-28T09:09:26.451Z,99416.22
2022-09-28T09:10:53.903Z,99422.05
2022-09-28T09:12:07.154Z,99422.67
2022-09-28T09:13:32.304Z,99412.73
2022-09-28T09:14:40.389Z,99411.38
2022-09-28T09:15:54.637Z,99408.91
2022-09-28T09:17:17.968Z,99412.83
2022-09-28T09:18:50.109Z,99405.64
2022-09-28T09:20:27.209Z,99412.59
2022-09-28T09:21:43.572Z,99414.04
2022-09-28T09:23:00.755Z,99420.16
2022-09-28T09:24:26.949Z,99421.61
2022-09-28T09:25:38.654Z,99415.55
2022-09-28T09:26:43.722Z,99419.77
2022-09-28T09:27:57.293Z,99415.02
2022-09-28T09:29:26.081Z,99416.47
2022-09-28T09:30:34.115Z,99413.70
2022-09-28T09:31:52.609Z,99405.94
2022-09-28T09:33:08.192Z,99411.14
2022-09-28T09:34:45.437Z,99414.14
2022-09-28T09:36:22.083Z,99412.69
2022-09-28T09:37:42.286Z,99413.41
2022-09-28T09:39:08.275Z,99405.84
2022-09-28T09:40:38.448Z,99404.09
2022-09-28T09:41:55.997Z,99411.80
2022-09-28T09:43:46.164Z,99408.73
2022-09-28T09:45:30.127Z,99407.91
2022-09-28T09:47:02.720Z,99404.63
2022-09-28T09:48:11.259Z,99401.13
2022-09-28T09:49:21.251Z,99400.94
2022-09-28T09:50:29.473Z,99408.18
2022-09-28T09:51:45.215Z,99406.03
2022-09-28T09:52:55.279Z,99403.89
2022-09-28T09:54:01.923Z,99407.78
2022-09-28T09:55:11.600Z,99413.31
2022-09-28T09:56:25.816Z,99408.90
2022-09-28T09:57:52.533Z,99416.91
2022-09-28T09:59:03.982Z,99405.84
2022-09-28T10:00:15.198Z,99397.54
2022-09-28T10:01:29.453Z,99405.51
2022-09-28T10:02:50.456Z,99404.39
2022-09-28T10:03:59.156Z,99408.80
2022-09-28T10:05:08.697Z,99406.03
2022-09-28T10:06:21.993Z,99410.45
2022-09-28T10:07:43.634Z,99406.56
2022-09-28T10:08:53.419Z,99406.56
2022-09-28T10:09:59.526Z,99398.77
2022-09-28T10:11:17.051Z,99401.75
2022-09-28T10:12:23.682Z,99401.95
2022-09-28T10:13:28.672Z,99401.03
2022-09-28T10:14:31.990Z,99404.33
2022-09-28T10:15:39.130Z,99398.39
2022-09-28T10:16:49.350Z,99399.41
2022-09-28T10:17:56.440Z,99390.70
2022-09-28T10:19:21.146Z,99395.05
2022-09-28T10:20:44.578Z,99393.19
2022-09-28T10:21:52.954Z,99392.78
2022-09-28T10:23:06.182Z,99397.38
2022-09-28T10:24:32.281Z,99391.21
2022-09-28T10:25:37.566Z,99393.68
2022-09-28T10:26:44.208Z,99388.66
2022-09-28T10:27:52.032Z,99394.39
2022-09-28T10:29:03.687Z,99396.04
2022-09-28T10:30:13.635Z,99400.64
2022-09-28T10:31:41.341Z,99399.41
2022-09-28T10:32:48.491Z,99399.29
2022-09-28T10:33:53.237Z,99400.82
2022-09-28T10:34:59.867Z,99401.83
2022-09-28T10:36:06.751Z,99401.22
2022-09-28T10:37:11.270Z,99403.36
2022-09-28T10:38:34.851Z,99400.59
2022-09-28T10:39:43.238Z,99402.23
2022-09-28T10:41:00.376Z,99403.88
2022-09-28T10:42:25.156Z,99401.92
2022-09-28T10:43:33.071Z,99403.23
2022-09-28T10:44:58.771Z,99401.29
2022-09-28T10:46:09.190Z,99402.41
2022-09-28T10:47:16.997Z,99399.98
2022-09-28T10:48:21.888Z,99402.75
2022-09-28T10:49:26.588Z,99400.28
2022-09-28T10:50:31.709Z,99396.69
2022-09-28T10:51:42.579Z,99396.99
2022-09-28T10:52:47.704Z,99400.06
2022-09-28T10:54:02.305Z,99399.58
2022-09-28T10:55:28.119Z,99399.87
2022-09-28T10:56:36.717Z,99397.41
2022-09-28T10:57:41.392Z,99397.75
2022-09-28T10:58:45.223Z,99401.95
2022-09-28T10:59:50.017Z,99407.30
2022-09-28T11:01:16.020Z,99407.30
2022-09-28T11:02:35.673Z,99405.66
2022-09-28T11:03:59.265Z,99400.72
2022-09-28T11:05:04.911Z,99396.63
2022-09-28T11:06:09.878Z,99402.81
2022-09-28T11:07:19.702Z,99404.54
2022-09-28T11:08:27.226Z,99408.77
2022-09-28T11:09:33.229Z,99407.72
2022-09-28T11:10:38.780Z,99401.98
2022-09-28T11:11:46.760Z,99410.93
2022-09-28T11:12:52.140Z,99406.30
2022-09-28T11:14:00.799Z,99409.69
2022-09-28T11:15:07.162Z,99403.44
2022-09-28T11:17:39.881Z,99404.78
2022-09-28T11:18:43.205Z,99406.69
2022-09-28T11:19:46.537Z,99407.31
2022-09-28T11:20:49.881Z,99394.06
2022-09-28T11:21:52.963Z,99404.32
2022-09-28T11:23:04.349Z,99409.36
2022-09-28T11:24:23.389Z,99404.13
2022-09-28T11:25:29.654Z,99396.12
2022-09-28T11:26:41.689Z,99399.22
2022-09-28T11:27:56.167Z,99411.41
2022-09-28T11:28:59.247Z,99403.41
2022-09-28T11:30:04.862Z,99404.52
2022-09-28T11:31:13.122Z,99407.29
2022-09-28T11:32:33.940Z,99403.41
2022-09-28T11:34:15.609Z,99411.41
2022-09-28T11:35:50.947Z,99405.55
2022-09-28T11:37:23.091Z,99403.30
2022-09-28T11:38:34.431Z,99412.95
2022-09-28T11:39:45.771Z,99396.02
2022-09-28T11:41:09.247Z,99395.42
2022-09-28T11:42:18.792Z,99391.53
2022-09-28T11:43:28.602Z,99385.39
2022-09-28T11:44:37.972Z,99383.15
2022-09-28T11:45:55.228Z,99387.53
2022-09-28T11:47:22.382Z,99392.77
2022-09-28T11:48:31.697Z,99388.88
2022-09-28T11:49:46.962Z,99388.58
2022-09-28T11:51:00.683Z,99386.63
2022-09-28T11:52:24.918Z,99383.04
2022-09-28T11:53:41.058Z,99386.63
2022-09-28T11:55:00.879Z,99382.71
2022-09-28T11:56:09.065Z,99391.84
2022-09-28T11:57:16.060Z,99394.31
2022-09-28T11:58:35.224Z,99400.67
2022-09-28T11:59:44.774Z,99384.88
2022-09-28T12:00:51.515Z,99394.01
2022-09-28T12:01:57.658Z,99396.48
2022-09-28T12:03:14.740Z,99396.14
2022-09-28T12:04:21.255Z,99402.50
2022-09-28T12:05:30.710Z,99400.86
2022-09-28T12:06:40.162Z,99405.27
2022-09-28T12:07:49.433Z,99406.09
2022-09-28T12:10:23.278Z,99401.69
2022-09-28T12:11:32.951Z,99403.85
2022-09-28T12:13:11.328Z,99407.75
2022-09-28T12:14:17.802Z,99411.11
2022-09-28T12:15:24.536Z,99405.38
2022-09-28T12:17:07.394Z,99410.73
2022-09-28T12:17:57.802Z,99410.50
2022-09-28T12:19:10.119Z,99412.52
2022-09-28T12:20:32.718Z,99417.03
2022-09-28T12:21:50.976Z,99415.72
2022-09-28T12:23:03.602Z,99411.60
2022-09-28T12:24:16.167Z,99408.31
2022-09-28T12:25:22.598Z,99411.90
2022-09-28T12:26:38.216Z,99409.13
2022-09-28T12:27:51.171Z,99414.67
2022-09-28T12:28:57.694Z,99412.72
2022-09-28T12:30:04.135Z,99416.31
2022-09-28T12:31:16.629Z,99418.78
2022-09-28T12:32:29.393Z,99406.59
2022-09-28T12:33:32.463Z,99418.16
2022-09-28T12:34:35.464Z,99413.97
2022-09-28T12:35:47.778Z,99406.98
2022-09-28T12:37:02.845Z,99414.42
2022-09-28T12:38:21.054Z,99420.16
2022-09-28T12:39:53.380Z,99415.64
2022-09-28T12:40:58.550Z,99422.19
2022-09-28T12:42:26.079Z,99420.77
2022-09-28T12:44:05.644Z,99412.66
2022-09-28T12:46:07.076Z,99425.08
2022-09-28T12:47:14.613Z,99421.48
2022-09-28T12:48:34.647Z,99417.59
2022-09-28T12:50:36.650Z,99412.05
2022-09-28T12:51:19.953Z,99416.47
2022-09-28T12:52:48.885Z,99412.88
2022-09-28T12:53:55.567Z,99417.59
2022-09-28T12:55:13.840Z,99420.66
2022-09-28T12:56:26.397Z,99411.03
2022-09-28T12:57:51.165Z,99415.23
2022-09-28T12:59:09.770Z,99410.81
2022-09-28T13:00:22.806Z,99407.22
2022-09-28T13:01:41.774Z,99407.22
2022-09-28T13:03:06.471Z,99404.98
2022-09-28T13:04:19.157Z,99412.98
2022-09-28T13:05:48.333Z,99416.58
2022-09-28T13:08:29.703Z,99429.69
2022-09-28T13:09:59.616Z,99425.48
2022-09-28T13:11:08.038Z,99418.62
2022-09-28T13:12:26.664Z,99424.47
2022-09-28T13:13:41.957Z,99429.48
2022-09-28T13:15:08.092Z,99428.66
2022-09-28T13:16:18.363Z,99437.30
2022-09-28T13:17:41.202Z,99434.00
2022-09-28T13:18:47.674Z,99435.42
2022-09-28T13:20:00.362Z,99430.51
2022-09-28T13:21:12.974Z,99431.59
2022-09-28T13:22:41.071Z,99433.84
2022-09-28T13:23:45.662Z,99432.52
2022-09-28T13:24:50.932Z,99430.88
2022-09-28T13:26:00.366Z,99441.12
2022-09-28T13:27:06.911Z,99435.59
2022-09-28T13:28:12.842Z,99437.53
2022-09-28T13:29:20.215Z,99436.71
2022-09-28T13:30:23.748Z,99432.83
2022-09-28T13:31:31.880Z,99433.95
2022-09-28T13:32:38.383Z,99440.30
2022-09-28T13:33:44.533Z,99439.18
2022-09-28T13:34:50.008Z,99449.13
2022-09-28T13:35:53.026Z,99444.42
2022-09-28T13:37:17.532Z,99446.06
2022-09-28T13:38:24.947Z,99454.38
2022-09-28T13:39:39.787Z,99452.43
2022-09-28T13:41:08.116Z,99453.55
2022-09-28T13:42:35.835Z,99451.90
2022-09-28T13:44:01.773Z,99461.63
2022-09-28T13:45:22.719Z,99463.37
2022-09-28T13:46:48.965Z,99454.87
2022-09-28T13:48:01.302Z,99457.41
2022-09-28T13:49:16.825Z,99450.55
2022-09-28T13:50:29.214Z,99455.26
2022-09-28T13:52:04.768Z,99455.55
2022-09-28T13:53:14.611Z,99452.30
2022-09-28T13:54:41.701Z,99458.95